createdAt,value
2023-04-09T00:00:10.311Z,51.20
2023-04-09T00:02:38.678Z,51.21
2023-04-09T00:05:09.251Z,51.11
2023-04-09T00:07:37.559Z,51.14
2023-04-09T00:10:07.142Z,51.11
2023-04-09T00:12:35.473Z,51.16
2023-04-09T00:15:03.873Z,51.21
2023-04-09T00:17:32.213Z,51.08
2023-04-09T00:20:00.559Z,51.12
2023-04-09T00:22:30.255Z,51.27
2023-04-09T00:24:58.519Z,51.30
2023-04-09T00:27:27.173Z,51.31
2023-04-09T00:29:55.605Z,51.42
2023-04-09T00:32:23.880Z,51.21
2023-04-09T00:34:52.226Z,51.36
2023-04-09T00:37:20.675Z,51.32
2023-04-09T00:39:50.751Z,51.42
2023-04-09T00:42:19.083Z,51.22
2023-04-09T00:44:47.454Z,51.31
2023-04-09T00:47:15.941Z,51.30
2023-04-09T00:49:44.590Z,51.27
2023-04-09T00:52:12.955Z,51.33
2023-04-09T00:54:41.363Z,51.13
2023-04-09T00:57:12.391Z,51.49
2023-04-09T00:59:40.751Z,51.49
2023-04-09T01:02:10.910Z,51.48
2023-04-09T01:04:45.095Z,51.35
2023-04-09T01:07:18.692Z,51.34
2023-04-09T01:09:55.034Z,51.30
2023-04-09T01:12:41.818Z,51.22
2023-04-09T01:15:15.215Z,51.18
2023-04-09T01:17:48.450Z,50.96
2023-04-09T01:20:31.732Z,50.96
2023-04-09T01:23:15.533Z,50.67
2023-04-09T01:25:55.551Z,50.75
2023-04-09T01:28:29.172Z,50.53
2023-04-09T01:31:02.593Z,50.58
2023-04-09T01:33:32.633Z,50.36
2023-04-09T01:36:02.432Z,50.44
2023-04-09T01:38:30.746Z,50.43
2023-04-09T01:40:59.226Z,50.40
2023-04-09T01:43:29.413Z,50.55
2023-04-09T01:45:58.051Z,50.62
2023-04-09T01:48:27.717Z,50.43
2023-04-09T01:50:56.089Z,50.48
2023-04-09T01:53:24.641Z,50.29
2023-04-09T01:55:52.939Z,50.46
2023-04-09T01:58:21.204Z,50.31
2023-04-09T02:00:52.601Z,50.30
2023-04-09T02:03:26.503Z,50.06
2023-04-09T02:06:06.576Z,49.85
2023-04-09T02:08:39.252Z,49.94
2023-04-09T02:11:11.338Z,50.12
2023-04-09T02:13:41.951Z,50.19
2023-04-09T02:16:13.920Z,50.09
2023-04-09T02:18:42.265Z,49.95
2023-04-09T02:21:13.747Z,49.96
2023-04-09T02:23:42.157Z,50.03
2023-04-09T02:26:10.491Z,50.04
2023-04-09T02:28:41.381Z,50.00
2023-04-09T02:31:11.423Z,50.07
2023-04-09T02:33:39.719Z,50.08
2023-04-09T02:36:08.442Z,50.04
2023-04-09T02:38:36.710Z,49.97
2023-04-09T02:41:05.385Z,50.09
2023-04-09T02:43:33.661Z,50.12
2023-04-09T02:46:02.038Z,50.22
2023-04-09T02:48:31.762Z,50.41
2023-04-09T02:51:00.119Z,50.45
2023-04-09T02:53:28.432Z,50.40
2023-04-09T02:55:56.732Z,50.49
2023-04-09T02:58:25.045Z,50.54
2023-04-09T03:00:53.297Z,50.99
2023-04-09T03:03:21.772Z,50.81
2023-04-09T03:05:56.999Z,50.84
2023-04-09T03:08:28.234Z,50.97
2023-04-09T03:10:56.544Z,50.87
2023-04-09T03:13:26.018Z,50.79
2023-04-09T03:15:54.499Z,50.75
2023-04-09T03:18:22.878Z,50.68
2023-04-09T03:20:55.526Z,50.84
2023-04-09T03:23:23.784Z,50.86
2023-04-09T03:26:02.494Z,50.65
2023-04-09T03:28:31.217Z,50.56
2023-04-09T03:30:59.836Z,50.61
2023-04-09T03:33:28.132Z,50.82
2023-04-09T03:35:57.832Z,50.79
2023-04-09T03:38:28.122Z,50.83
2023-04-09T03:40:57.836Z,50.98
2023-04-09T03:43:26.406Z,51.06
2023-04-09T03:45:54.703Z,50.94
2023-04-09T03:48:22.977Z,51.21
2023-04-09T03:50:51.630Z,51.32
2023-04-09T03:53:21.332Z,51.14
2023-04-09T03:55:49.666Z,51.11
2023-04-09T03:58:17.923Z,51.54
2023-04-09T04:00:48.673Z,51.48
2023-04-09T04:03:17.343Z,51.46
2023-04-09T04:05:45.894Z,51.44
2023-04-09T04:08:15.743Z,51.34
2023-04-09T04:10:48.051Z,51.64
2023-04-09T04:13:16.400Z,51.74
2023-04-09T04:15:44.742Z,51.88
2023-04-09T04:18:13.041Z,51.71
2023-04-09T04:20:42.214Z,51.72
2023-04-09T04:23:13.414Z,51.78
2023-04-09T04:25:44.163Z,51.85
2023-04-09T04:28:12.451Z,51.79
2023-04-09T04:30:43.114Z,51.94
2023-04-09T04:33:11.585Z,51.81
2023-04-09T04:35:40.094Z,51.67
2023-04-09T04:38:08.506Z,51.84
2023-04-09T04:40:42.356Z,51.66
2023-04-09T04:43:12.051Z,51.84
2023-04-09T04:45:40.402Z,51.60
2023-04-09T04:48:08.753Z,51.76
2023-04-09T04:50:37.019Z,51.90
2023-04-09T04:53:05.440Z,51.77
2023-04-09T04:55:37.049Z,51.86
2023-04-09T04:58:05.329Z,51.63
2023-04-09T05:00:35.037Z,51.77
2023-04-09T05:03:03.539Z,51.70
2023-04-09T05:05:31.981Z,51.63
2023-04-09T05:08:00.560Z,51.75
2023-04-09T05:10:28.900Z,51.78
2023-04-09T05:12:57.213Z,51.81
2023-04-09T05:15:25.565Z,51.98
2023-04-09T05:17:55.376Z,51.98
2023-04-09T05:20:23.849Z,51.89
2023-04-09T05:22:52.326Z,52.01
2023-04-09T05:25:20.810Z,52.03
2023-04-09T05:27:49.136Z,52.13
2023-04-09T05:30:20.552Z,52.03
2023-04-09T05:32:51.761Z,52.07
2023-04-09T05:35:21.596Z,52.31
2023-04-09T05:37:49.902Z,52.27
2023-04-09T05:40:18.185Z,52.44
2023-04-09T05:42:46.545Z,52.33
2023-04-09T05:45:14.848Z,52.41
2023-04-09T05:47:46.146Z,52.47
2023-04-09T05:50:14.592Z,52.51
2023-04-09T05:52:44.249Z,52.50
2023-04-09T05:55:12.809Z,52.77
2023-04-09T05:57:42.214Z,52.66
2023-04-09T06:00:11.676Z,52.50
2023-04-09T06:02:40.052Z,52.54
2023-04-09T06:05:09.317Z,52.58
2023-04-09T06:07:37.572Z,52.72
2023-04-09T06:10:09.435Z,52.95
2023-04-09T06:12:37.833Z,53.09
2023-04-09T06:15:07.478Z,52.91
2023-04-09T06:17:35.910Z,52.87
2023-04-09T06:20:06.484Z,53.20
2023-04-09T06:22:34.791Z,53.03
2023-04-09T06:25:03.067Z,53.01
2023-04-09T06:27:35.789Z,53.29
2023-04-09T06:30:04.238Z,53.23
2023-04-09T06:32:37.695Z,53.16
2023-04-09T06:35:11.816Z,53.49
2023-04-09T06:37:45.623Z,53.68
2023-04-09T06:40:15.552Z,53.46
2023-04-09T06:42:47.844Z,53.56
2023-04-09T06:45:16.267Z,53.58
2023-04-09T06:47:44.681Z,53.62
2023-04-09T06:50:13.044Z,53.68
2023-04-09T06:52:41.604Z,53.50
2023-04-09T06:55:11.517Z,53.62
2023-04-09T06:57:40.190Z,53.35
2023-04-09T07:00:11.857Z,53.61
2023-04-09T07:02:40.427Z,53.57
2023-04-09T07:05:09.724Z,53.56
2023-04-09T07:07:38.860Z,53.31
2023-04-09T07:10:08.946Z,53.54
2023-04-09T07:12:37.260Z,53.33
2023-04-09T07:15:09.543Z,53.39
2023-04-09T07:17:37.956Z,53.32
2023-04-09T07:20:07.604Z,53.31
2023-04-09T07:22:37.444Z,53.28
2023-04-09T07:25:06.844Z,53.24
2023-04-09T07:27:35.169Z,53.19
2023-04-09T07:30:03.482Z,53.24
2023-04-09T07:32:36.027Z,53.49
2023-04-09T07:35:05.315Z,53.10
2023-04-09T07:37:33.624Z,52.98
2023-04-09T07:40:04.017Z,53.01
2023-04-09T07:42:32.738Z,53.05
2023-04-09T07:45:01.070Z,53.07
2023-04-09T07:47:38.518Z,52.93
2023-04-09T07:50:10.583Z,52.96
2023-04-09T07:52:38.959Z,52.91
2023-04-09T07:55:08.329Z,53.06
2023-04-09T07:57:36.856Z,53.00
2023-04-09T08:00:06.895Z,53.20
2023-04-09T08:02:35.491Z,53.03
2023-04-09T08:05:03.876Z,52.75
2023-04-09T08:07:33.596Z,52.63
2023-04-09T08:10:02.070Z,52.58
2023-04-09T08:12:30.407Z,52.59
2023-04-09T08:14:58.766Z,52.59
2023-04-09T08:17:27.472Z,52.39
2023-04-09T08:19:55.885Z,52.36
2023-04-09T08:22:24.220Z,52.31
2023-04-09T08:24:54.710Z,52.21
2023-04-09T08:27:23.029Z,52.11
2023-04-09T08:29:51.915Z,52.05
2023-04-09T08:32:20.277Z,51.93
2023-04-09T08:34:48.741Z,52.13
2023-04-09T08:37:17.580Z,52.17
2023-04-09T08:39:46.077Z,52.08
2023-04-09T08:42:16.642Z,51.82
2023-04-09T08:44:45.745Z,51.88
2023-04-09T08:47:14.452Z,51.89
2023-04-09T08:49:42.906Z,51.82
2023-04-09T08:52:11.337Z,51.75
2023-04-09T08:54:39.757Z,51.54
2023-04-09T08:57:08.564Z,51.43
2023-04-09T08:59:38.322Z,51.44
2023-04-09T09:02:11.157Z,51.31
2023-04-09T09:04:47.332Z,51.19
2023-04-09T09:07:16.444Z,50.93
2023-04-09T09:09:56.393Z,51.15
2023-04-09T09:12:36.901Z,51.25
2023-04-09T09:15:26.132Z,51.29
2023-04-09T09:17:59.246Z,51.24
2023-04-09T09:20:28.912Z,51.18
2023-04-09T09:22:57.849Z,51.25
2023-04-09T09:25:26.792Z,51.39
2023-04-09T09:27:55.956Z,51.49
2023-04-09T09:30:27.529Z,51.65
2023-04-09T09:33:05.699Z,51.71
2023-04-09T09:35:50.158Z,51.48
2023-04-09T09:38:19.410Z,51.43
2023-04-09T09:40:48.571Z,51.54
2023-04-09T09:43:18.790Z,51.32
2023-04-09T09:45:50.133Z,51.66
2023-04-09T09:48:18.656Z,51.58
2023-04-09T09:50:50.405Z,51.39
2023-04-09T09:53:23.994Z,51.36
2023-04-09T09:55:58.590Z,51.19
2023-04-09T09:58:33.605Z,51.34
2023-04-09T10:01:04.011Z,51.20
2023-04-09T10:03:37.675Z,51.15
2023-04-09T10:06:06.888Z,50.99
2023-04-09T10:08:38.014Z,50.99
2023-04-09T10:11:07.864Z,51.20
2023-04-09T10:13:41.769Z,51.25
2023-04-09T10:16:13.115Z,51.20
2023-04-09T10:18:42.891Z,51.11
2023-04-09T10:21:33.729Z,51.26
2023-04-09T10:24:05.889Z,51.39
2023-04-09T10:26:35.532Z,51.71
2023-04-09T10:29:08.716Z,51.69
2023-04-09T10:31:55.003Z,51.77
2023-04-09T10:34:25.844Z,51.89
2023-04-09T10:36:59.770Z,51.56
2023-04-09T10:39:30.918Z,51.83
2023-04-09T10:42:00.419Z,51.57
2023-04-09T10:44:31.883Z,51.57
2023-04-09T10:47:01.679Z,51.25
2023-04-09T10:49:38.233Z,51.26
2023-04-09T10:52:11.613Z,50.95
2023-04-09T10:54:47.078Z,50.61
2023-04-09T10:57:20.844Z,50.55
2023-04-09T10:59:52.128Z,49.90
2023-04-09T11:03:01.783Z,49.44
2023-04-09T11:05:35.126Z,49.69
2023-04-09T11:08:07.731Z,49.56
2023-04-09T11:10:36.416Z,49.29
2023-04-09T11:13:05.629Z,48.90
2023-04-09T11:15:36.531Z,48.33
2023-04-09T11:18:09.845Z,47.99
2023-04-09T11:20:38.461Z,48.08
2023-04-09T11:23:07.199Z,47.77
2023-04-09T11:25:36.167Z,47.62
2023-04-09T11:28:06.207Z,47.19
2023-04-09T11:30:35.637Z,47.06
2023-04-09T11:33:05.515Z,46.64
2023-04-09T11:35:37.224Z,46.47
2023-04-09T11:38:09.117Z,46.78
2023-04-09T11:40:43.537Z,46.62
2023-04-09T11:43:11.915Z,46.78
2023-04-09T11:45:40.735Z,45.97
2023-04-09T11:48:10.603Z,45.11
2023-04-09T11:50:39.379Z,45.71
2023-04-09T11:53:19.256Z,45.55
2023-04-09T11:55:51.982Z,45.54
2023-04-09T11:58:24.039Z,45.95
2023-04-09T12:00:55.845Z,46.17
2023-04-09T12:03:37.482Z,46.40
2023-04-09T12:06:09.283Z,46.44
2023-04-09T12:08:38.547Z,46.10
2023-04-09T12:11:11.401Z,45.58
2023-04-09T12:13:43.246Z,44.80
2023-04-09T12:16:12.740Z,45.03
2023-04-09T12:18:42.565Z,44.70
2023-04-09T12:21:11.354Z,43.90
2023-04-09T12:23:39.783Z,44.72
2023-04-09T12:26:08.269Z,44.35
2023-04-09T12:28:37.057Z,44.69
2023-04-09T12:31:06.046Z,44.95
2023-04-09T12:33:34.376Z,43.61
2023-04-09T12:36:04.166Z,44.95
2023-04-09T12:38:32.527Z,44.90
2023-04-09T12:41:01.303Z,44.14
2023-04-09T12:43:29.820Z,43.44
2023-04-09T12:45:58.228Z,43.99
2023-04-09T12:48:26.851Z,43.90
2023-04-09T12:50:55.242Z,43.60
2023-04-09T12:53:25.039Z,42.84
2023-04-09T12:55:53.478Z,42.26
2023-04-09T12:58:21.836Z,41.62
2023-04-09T13:00:50.323Z,41.37
2023-04-09T13:03:18.829Z,40.61
2023-04-09T13:05:47.344Z,40.20
2023-04-09T13:08:16.244Z,40.14
2023-04-09T13:10:46.469Z,39.79
2023-04-09T13:13:17.939Z,40.11
2023-04-09T13:15:46.331Z,40.25
2023-04-09T13:18:15.048Z,39.85
2023-04-09T13:20:43.493Z,39.69
2023-04-09T13:23:11.777Z,39.03
2023-04-09T13:25:40.284Z,38.24
2023-04-09T13:28:09.960Z,37.85
2023-04-09T13:30:38.356Z,37.64
2023-04-09T13:33:06.826Z,37.10
2023-04-09T13:35:35.179Z,37.24
2023-04-09T13:38:03.645Z,37.28
2023-04-09T13:40:32.009Z,36.38
2023-04-09T13:43:00.368Z,35.86
2023-04-09T13:45:30.168Z,35.74
2023-04-09T13:47:58.505Z,35.81
2023-04-09T13:50:27.055Z,36.23
2023-04-09T13:52:55.762Z,36.05
2023-04-09T13:55:24.162Z,35.59
2023-04-09T13:57:52.609Z,35.24
2023-04-09T14:00:21.146Z,35.45
2023-04-09T14:02:51.204Z,35.68
2023-04-09T14:05:19.830Z,36.04
2023-04-09T14:07:48.380Z,35.55
2023-04-09T14:10:17.060Z,35.40
2023-04-09T14:12:45.535Z,34.93
2023-04-09T14:15:14.146Z,35.18
2023-04-09T14:17:43.801Z,34.21
2023-04-09T14:20:14.221Z,34.31
2023-04-09T14:22:43.143Z,34.37
2023-04-09T14:25:11.904Z,34.27
2023-04-09T14:27:40.252Z,34.47
2023-04-09T14:30:11.573Z,35.06
2023-04-09T14:32:39.976Z,34.81
2023-04-09T14:35:09.038Z,34.86
2023-04-09T14:37:40.931Z,34.77
2023-04-09T14:40:10.608Z,34.75
2023-04-09T14:42:38.982Z,34.78
2023-04-09T14:45:08.368Z,35.12
2023-04-09T14:47:36.696Z,35.07
2023-04-09T14:50:09.854Z,35.20
2023-04-09T14:52:40.044Z,35.37
2023-04-09T14:55:12.460Z,35.40
2023-04-09T14:57:41.848Z,35.58
2023-04-09T15:00:12.474Z,35.66
2023-04-09T15:02:41.606Z,35.63
2023-04-09T15:05:11.366Z,35.47
2023-04-09T15:07:41.706Z,35.39
2023-04-09T15:10:11.144Z,35.51
2023-04-09T15:12:40.974Z,35.66
2023-04-09T15:15:11.219Z,35.75
2023-04-09T15:17:39.603Z,35.91
2023-04-09T15:20:09.481Z,35.77
2023-04-09T15:22:42.328Z,35.91
2023-04-09T15:25:13.051Z,35.91
2023-04-09T15:27:42.557Z,36.01
2023-04-09T15:30:11.531Z,36.12
2023-04-09T15:32:40.058Z,35.52
2023-04-09T15:35:09.665Z,35.60
2023-04-09T15:37:38.033Z,35.43
2023-04-09T15:40:09.661Z,35.50
2023-04-09T15:42:38.140Z,35.60
2023-04-09T15:45:07.968Z,35.64
2023-04-09T15:47:36.428Z,35.51
2023-04-09T15:50:05.171Z,35.43
2023-04-09T15:52:33.594Z,35.34
2023-04-09T15:55:02.278Z,35.28
2023-04-09T15:57:32.257Z,35.29
2023-04-09T16:00:00.728Z,35.20
2023-04-09T16:02:29.252Z,35.32
2023-04-09T16:04:57.770Z,35.14
2023-04-09T16:07:26.808Z,35.20
2023-04-09T16:09:55.333Z,34.96
2023-04-09T16:12:24.824Z,35.08
2023-04-09T16:14:54.930Z,35.34
2023-04-09T16:17:23.766Z,35.15
2023-04-09T16:19:52.255Z,35.16
2023-04-09T16:22:20.663Z,35.04
2023-04-09T16:24:49.031Z,34.99
2023-04-09T16:27:17.448Z,34.95
2023-04-09T16:29:46.266Z,35.01
2023-04-09T16:32:16.079Z,35.36
2023-04-09T16:34:44.519Z,35.46
2023-04-09T16:37:15.777Z,35.55
2023-04-09T16:39:44.166Z,35.17
2023-04-09T16:42:12.704Z,34.96
2023-04-09T16:44:41.151Z,35.02
2023-04-09T16:47:09.655Z,34.90
2023-04-09T16:49:39.451Z,35.37
2023-04-09T16:52:07.895Z,35.43
2023-04-09T16:54:36.347Z,35.63
2023-04-09T16:57:07.765Z,35.49
2023-04-09T16:59:36.708Z,35.48
2023-04-09T17:02:05.301Z,35.34
2023-04-09T17:04:34.583Z,35.35
2023-04-09T17:07:04.436Z,35.34
2023-04-09T17:09:32.945Z,35.26
2023-04-09T17:12:01.300Z,35.04
2023-04-09T17:14:33.731Z,35.37
2023-04-09T17:17:02.715Z,35.13
2023-04-09T17:19:31.120Z,34.85
2023-04-09T17:21:59.634Z,34.84
2023-04-09T17:24:29.898Z,34.94
2023-04-09T17:26:58.391Z,35.19
2023-04-09T17:29:26.707Z,35.42
2023-04-09T17:31:55.287Z,35.59
2023-04-09T17:34:24.172Z,35.62
2023-04-09T17:36:56.855Z,35.46
2023-04-09T17:39:25.342Z,35.59
2023-04-09T17:41:56.564Z,35.46
2023-04-09T17:44:25.948Z,35.88
2023-04-09T17:46:54.364Z,36.13
2023-04-09T17:49:22.769Z,35.95
2023-04-09T17:51:51.314Z,36.49
2023-04-09T17:54:19.702Z,36.79
2023-04-09T17:56:48.011Z,36.75
2023-04-09T17:59:17.912Z,36.96
2023-04-09T18:01:46.285Z,37.17
2023-04-09T18:04:16.181Z,37.61
2023-04-09T18:06:44.776Z,37.60
2023-04-09T18:09:13.502Z,38.04
2023-04-09T18:11:42.592Z,38.30
2023-04-09T18:14:11.194Z,38.43
2023-04-09T18:16:41.391Z,38.54
2023-04-09T18:19:11.813Z,38.74
2023-04-09T18:21:40.243Z,39.01
2023-04-09T18:24:08.923Z,39.44
2023-04-09T18:26:37.296Z,39.50
2023-04-09T18:29:05.992Z,39.63
2023-04-09T18:31:34.485Z,39.87
2023-04-09T18:34:04.175Z,40.13
2023-04-09T18:36:32.545Z,40.47
2023-04-09T18:39:00.892Z,40.67
2023-04-09T18:41:30.179Z,40.73
2023-04-09T18:43:58.514Z,41.35
2023-04-09T18:46:26.955Z,41.69
2023-04-09T18:48:55.488Z,41.97
2023-04-09T18:51:26.261Z,41.88
2023-04-09T18:53:54.853Z,41.96
2023-04-09T18:56:24.710Z,42.40
2023-04-09T18:58:53.281Z,42.64
2023-04-09T19:01:21.962Z,42.78
2023-04-09T19:03:50.564Z,42.80
2023-04-09T19:06:21.226Z,42.89
2023-04-09T19:08:57.131Z,43.06
2023-04-09T19:11:26.010Z,43.40
2023-04-09T19:13:54.495Z,43.26
2023-04-09T19:16:22.931Z,43.44
2023-04-09T19:18:51.598Z,43.66
2023-04-09T19:21:20.072Z,43.73
2023-04-09T19:23:48.428Z,43.96
2023-04-09T19:26:18.304Z,43.99
2023-04-09T19:28:46.940Z,44.13
2023-04-09T19:31:16.172Z,44.26
2023-04-09T19:33:44.500Z,44.20
2023-04-09T19:36:13.092Z,44.47
2023-04-09T19:38:41.797Z,44.49
2023-04-09T19:41:10.546Z,44.53
2023-04-09T19:43:41.911Z,44.56
2023-04-09T19:46:10.700Z,44.85
2023-04-09T19:48:40.827Z,44.92
2023-04-09T19:51:09.251Z,45.05
2023-04-09T19:53:37.861Z,45.18
2023-04-09T19:56:07.044Z,45.29
2023-04-09T19:58:35.391Z,45.45
2023-04-09T20:01:05.295Z,45.50
2023-04-09T20:03:34.021Z,45.54
2023-04-09T20:06:07.851Z,45.49
2023-04-09T20:08:36.669Z,45.55
2023-04-09T20:11:05.415Z,45.80
2023-04-09T20:13:34.252Z,46.04
2023-04-09T20:16:03.950Z,46.00
2023-04-09T20:18:32.313Z,46.10
2023-04-09T20:21:00.645Z,46.28
2023-04-09T20:23:29.058Z,46.49
2023-04-09T20:25:57.441Z,46.53
2023-04-09T20:28:26.054Z,46.76
2023-04-09T20:30:54.386Z,46.51
2023-04-09T20:33:24.113Z,46.65
2023-04-09T20:35:53.209Z,46.49
2023-04-09T20:38:23.881Z,46.66
2023-04-09T20:40:52.752Z,46.62
2023-04-09T20:43:21.404Z,46.75
2023-04-09T20:45:49.712Z,46.72
2023-04-09T20:48:19.003Z,46.75
2023-04-09T20:50:48.760Z,46.85
2023-04-09T20:53:17.933Z,46.78
2023-04-09T20:55:46.534Z,46.65
2023-04-09T20:58:14.896Z,46.53
2023-04-09T21:00:43.207Z,46.56
2023-04-09T21:03:11.713Z,46.49
2023-04-09T21:05:40.357Z,46.71
2023-04-09T21:08:14.659Z,46.38
2023-04-09T21:10:43.076Z,46.50
2023-04-09T21:13:11.388Z,46.40
2023-04-09T21:15:39.780Z,46.58
2023-04-09T21:18:08.352Z,46.69
2023-04-09T21:20:36.776Z,46.52
2023-04-09T21:23:05.148Z,46.48
2023-04-09T21:25:35.169Z,46.50
2023-04-09T21:28:03.518Z,46.59
2023-04-09T21:30:32.355Z,46.65
2023-04-09T21:33:04.157Z,46.79
2023-04-09T21:35:32.605Z,46.84
2023-04-09T21:38:02.861Z,46.86
2023-04-09T21:40:31.890Z,46.95
2023-04-09T21:43:01.733Z,46.94
2023-04-09T21:45:30.399Z,46.98
2023-04-09T21:47:58.788Z,46.92
2023-04-09T21:50:27.181Z,47.05
2023-04-09T21:52:55.575Z,47.08
2023-04-09T21:55:24.172Z,47.01
2023-04-09T21:57:53.622Z,47.02
2023-04-09T22:00:23.355Z,47.00
2023-04-09T22:02:51.839Z,46.85
2023-04-09T22:05:20.500Z,46.87
2023-04-09T22:07:48.765Z,46.92
2023-04-09T22:10:17.064Z,46.82
2023-04-09T22:12:45.608Z,46.87
2023-04-09T22:15:14.083Z,46.93
2023-04-09T22:17:44.391Z,46.91
2023-04-09T22:20:13.007Z,46.93
2023-04-09T22:22:42.487Z,46.91
2023-04-09T22:25:12.350Z,47.04
2023-04-09T22:27:40.681Z,46.98
2023-04-09T22:30:10.659Z,47.11
2023-04-09T22:32:39.049Z,47.17
2023-04-09T22:35:10.189Z,47.13
2023-04-09T22:37:38.644Z,47.09
2023-04-09T22:40:14.234Z,47.07
2023-04-09T22:42:43.450Z,47.01
2023-04-09T22:45:12.598Z,47.02
2023-04-09T22:47:41.219Z,47.18
2023-04-09T22:50:13.463Z,47.23
2023-04-09T22:52:41.855Z,47.27
2023-04-09T22:55:11.358Z,47.31
2023-04-09T22:57:42.717Z,47.29
2023-04-09T23:00:11.776Z,47.34
2023-04-09T23:02:40.255Z,47.46
2023-04-09T23:05:11.331Z,47.58
2023-04-09T23:07:39.751Z,47.60
2023-04-09T23:10:09.407Z,47.68
2023-04-09T23:12:37.721Z,47.87
2023-04-09T23:15:07.280Z,47.90
2023-04-09T23:17:36.010Z,47.68
2023-04-09T23:20:06.784Z,49.37
2023-04-09T23:22:36.563Z,48.68
2023-04-09T23:25:08.076Z,48.43
2023-04-09T23:27:36.393Z,48.14
2023-04-09T23:30:05.823Z,48.40
2023-04-09T23:32:34.239Z,48.32
2023-04-09T23:35:02.763Z,48.29
2023-04-09T23:37:31.399Z,48.30
2023-04-09T23:40:01.343Z,48.19
2023-04-09T23:42:32.924Z,48.16
2023-04-09T23:45:04.094Z,48.27
2023-04-09T23:47:33.623Z,48.24
2023-04-09T23:50:04.992Z,48.17
2023-04-09T23:52:34.894Z,48.27
2023-04-09T23:55:05.054Z,48.22
2023-04-09T23:57:33.728Z,48.18
